Terminal Aerodrome Forecast
Issued by NWS Tuscon, AZ

Home | Current Version | Previous Version | Text Only | Print | Product List | Glossary On
Versions: 1 2 3 4 5 6 7 8 9 10 11 12 13 14 15 16 17
231
FTUS45 KTWC 261120
TAFTUS
TAF
KTUS 261120Z 2612/2712 17007KT P6SM SCT250
     FM261500 19012G20KT P6SM SKC
     FM262000 23020G28KT P6SM SKC
     FM270200 25010KT P6SM SKC=

USA.gov is the U.S. government's official web portal to all federal, state and local government web resources and services.